sensor_id;sensor_type;location;lat;lon;timestamp;temperature;humidity
2226;DHT22;1119;48.288;8.726;2023-03-26T00:02:40;7.60;99.90
2226;DHT22;1119;48.288;8.726;2023-03-26T00:05:28;7.60;99.90
2226;DHT22;1119;48.288;8.726;2023-03-26T00:08:18;7.60;99.90
2226;DHT22;1119;48.288;8.726;2023-03-26T00:11:09;7.70;99.90
2226;DHT22;1119;48.288;8.726;2023-03-26T00:13:58;7.60;99.90
2226;DHT22;1119;48.288;8.726;2023-03-26T00:16:45;7.60;99.90
2226;DHT22;1119;48.288;8.726;2023-03-26T00:19:34;7.60;99.90
2226;DHT22;1119;48.288;8.726;2023-03-26T00:22:22;7.50;99.90
2226;DHT22;1119;48.288;8.726;2023-03-26T00:25:11;7.60;99.90
2226;DHT22;1119;48.288;8.726;2023-03-26T00:27:58;7.50;99.90
2226;DHT22;1119;48.288;8.726;2023-03-26T00:30:47;7.50;99.90
2226;DHT22;1119;48.288;8.726;2023-03-26T00:33:34;7.40;99.90
2226;DHT22;1119;48.288;8.726;2023-03-26T00:36:24;7.30;99.90
2226;DHT22;1119;48.288;8.726;2023-03-26T00:39:12;7.30;99.90
2226;DHT22;1119;48.288;8.726;2023-03-26T00:42:01;7.30;99.90
2226;DHT22;1119;48.288;8.726;2023-03-26T00:44:51;7.30;99.90
2226;DHT22;1119;48.288;8.726;2023-03-26T00:47:42;7.20;99.90
2226;DHT22;1119;48.288;8.726;2023-03-26T00:50:30;7.20;99.90
2226;DHT22;1119;48.288;8.726;2023-03-26T00:53:18;7.30;99.90
2226;DHT22;1119;48.288;8.726;2023-03-26T00:56:07;7.30;99.90
2226;DHT22;1119;48.288;8.726;2023-03-26T00:58:56;7.40;99.90
2226;DHT22;1119;48.288;8.726;2023-03-26T01:01:45;7.40;99.90
2226;DHT22;1119;48.288;8.726;2023-03-26T01:04:33;7.40;99.90
2226;DHT22;1119;48.288;8.726;2023-03-26T01:07:24;7.50;99.90
2226;DHT22;1119;48.288;8.726;2023-03-26T01:10:26;7.60;99.90
2226;DHT22;1119;48.288;8.726;2023-03-26T01:13:16;7.60;99.90
2226;DHT22;1119;48.288;8.726;2023-03-26T01:16:13;7.60;99.90
2226;DHT22;1119;48.288;8.726;2023-03-26T01:19:08;7.60;99.90
2226;DHT22;1119;48.288;8.726;2023-03-26T01:21:59;7.60;99.90
2226;DHT22;1119;48.288;8.726;2023-03-26T01:24:48;7.50;99.90
2226;DHT22;1119;48.288;8.726;2023-03-26T01:27:44;7.50;99.90
2226;DHT22;1119;48.288;8.726;2023-03-26T01:30:37;7.50;99.90
2226;DHT22;1119;48.288;8.726;2023-03-26T01:33:30;7.50;99.90
2226;DHT22;1119;48.288;8.726;2023-03-26T01:36:27;7.50;99.90
2226;DHT22;1119;48.288;8.726;2023-03-26T01:39:29;7.50;99.90
2226;DHT22;1119;48.288;8.726;2023-03-26T01:42:26;7.40;99.90
2226;DHT22;1119;48.288;8.726;2023-03-26T01:45:21;7.40;99.90
2226;DHT22;1119;48.288;8.726;2023-03-26T01:48:11;7.30;99.90
2226;DHT22;1119;48.288;8.726;2023-03-26T01:50:59;7.40;99.90
2226;DHT22;1119;48.288;8.726;2023-03-26T01:53:47;7.30;99.90
2226;DHT22;1119;48.288;8.726;2023-03-26T01:56:40;7.30;99.90
2226;DHT22;1119;48.288;8.726;2023-03-26T01:59:52;7.30;99.90
2226;DHT22;1119;48.288;8.726;2023-03-26T02:02:53;7.30;99.90
2226;DHT22;1119;48.288;8.726;2023-03-26T02:05:50;7.30;99.90
2226;DHT22;1119;48.288;8.726;2023-03-26T02:08:45;7.20;99.90
2226;DHT22;1119;48.288;8.726;2023-03-26T02:11:38;7.20;99.90
2226;DHT22;1119;48.288;8.726;2023-03-26T02:14:28;7.20;99.90
2226;DHT22;1119;48.288;8.726;2023-03-26T02:17:17;7.10;99.90
2226;DHT22;1119;48.288;8.726;2023-03-26T02:20:11;7.20;99.90
2226;DHT22;1119;48.288;8.726;2023-03-26T02:23:00;7.20;99.90
2226;DHT22;1119;48.288;8.726;2023-03-26T02:25:48;7.20;99.90
2226;DHT22;1119;48.288;8.726;2023-03-26T02:28:36;7.20;99.90
2226;DHT22;1119;48.288;8.726;2023-03-26T02:31:25;7.30;99.90
2226;DHT22;1119;48.288;8.726;2023-03-26T02:34:16;7.40;99.90
2226;DHT22;1119;48.288;8.726;2023-03-26T02:37:10;7.40;99.90
2226;DHT22;1119;48.288;8.726;2023-03-26T02:40:01;7.80;99.90
2226;DHT22;1119;48.288;8.726;2023-03-26T02:42:51;7.30;99.90
2226;DHT22;1119;48.288;8.726;2023-03-26T02:45:39;7.30;99.90
2226;DHT22;1119;48.288;8.726;2023-03-26T02:48:48;7.30;99.90
2226;DHT22;1119;48.288;8.726;2023-03-26T02:51:45;7.40;99.90
2226;DHT22;1119;48.288;8.726;2023-03-26T02:54:42;7.40;99.90
2226;DHT22;1119;48.288;8.726;2023-03-26T02:57:38;7.40;99.90
2226;DHT22;1119;48.288;8.726;2023-03-26T03:00:35;7.50;99.90
2226;DHT22;1119;48.288;8.726;2023-03-26T03:03:46;7.50;99.90
2226;DHT22;1119;48.288;8.726;2023-03-26T03:06:55;7.50;99.90
2226;DHT22;1119;48.288;8.726;2023-03-26T03:09:45;7.50;99.90
2226;DHT22;1119;48.288;8.726;2023-03-26T03:12:54;7.50;99.90
2226;DHT22;1119;48.288;8.726;2023-03-26T03:15:41;7.40;99.90
2226;DHT22;1119;48.288;8.726;2023-03-26T03:18:29;7.30;99.90
2226;DHT22;1119;48.288;8.726;2023-03-26T03:21:17;7.20;99.90
2226;DHT22;1119;48.288;8.726;2023-03-26T03:24:07;7.20;99.90
2226;DHT22;1119;48.288;8.726;2023-03-26T03:27:02;7.20;99.90
2226;DHT22;1119;48.288;8.726;2023-03-26T03:29:53;7.20;99.90
2226;DHT22;1119;48.288;8.726;2023-03-26T03:33:03;7.30;99.90
2226;DHT22;1119;48.288;8.726;2023-03-26T03:35:52;7.40;99.90
2226;DHT22;1119;48.288;8.726;2023-03-26T03:38:40;7.40;99.90
2226;DHT22;1119;48.288;8.726;2023-03-26T03:41:31;7.40;99.90
2226;DHT22;1119;48.288;8.726;2023-03-26T03:44:22;7.40;99.90
2226;DHT22;1119;48.288;8.726;2023-03-26T03:47:10;7.40;99.90
2226;DHT22;1119;48.288;8.726;2023-03-26T03:49:59;7.40;99.90
2226;DHT22;1119;48.288;8.726;2023-03-26T03:52:47;7.40;99.90
2226;DHT22;1119;48.288;8.726;2023-03-26T03:55:36;7.50;99.90
2226;DHT22;1119;48.288;8.726;2023-03-26T03:58:28;7.50;99.90
2226;DHT22;1119;48.288;8.726;2023-03-26T04:01:23;7.50;99.90
2226;DHT22;1119;48.288;8.726;2023-03-26T04:04:19;7.50;99.90
2226;DHT22;1119;48.288;8.726;2023-03-26T04:07:21;7.50;99.90
2226;DHT22;1119;48.288;8.726;2023-03-26T04:10:24;7.50;99.90
2226;DHT22;1119;48.288;8.726;2023-03-26T04:13:21;7.50;99.90
2226;DHT22;1119;48.288;8.726;2023-03-26T04:16:42;7.40;99.90
2226;DHT22;1119;48.288;8.726;2023-03-26T04:19:31;7.40;99.90
2226;DHT22;1119;48.288;8.726;2023-03-26T04:22:19;7.40;99.90
2226;DHT22;1119;48.288;8.726;2023-03-26T04:25:13;7.40;99.90
2226;DHT22;1119;48.288;8.726;2023-03-26T04:28:23;7.40;99.90
2226;DHT22;1119;48.288;8.726;2023-03-26T04:31:28;7.50;99.90
2226;DHT22;1119;48.288;8.726;2023-03-26T04:34:21;7.50;99.90
2226;DHT22;1119;48.288;8.726;2023-03-26T04:37:26;7.50;99.90
2226;DHT22;1119;48.288;8.726;2023-03-26T04:40:46;7.50;99.90
2226;DHT22;1119;48.288;8.726;2023-03-26T04:43:48;7.60;99.90
2226;DHT22;1119;48.288;8.726;2023-03-26T04:46:55;7.60;99.90
2226;DHT22;1119;48.288;8.726;2023-03-26T04:49:51;7.70;99.90
2226;DHT22;1119;48.288;8.726;2023-03-26T04:52:39;7.80;99.90
2226;DHT22;1119;48.288;8.726;2023-03-26T04:55:59;7.80;99.90
2226;DHT22;1119;48.288;8.726;2023-03-26T04:59:27;7.80;99.90
2226;DHT22;1119;48.288;8.726;2023-03-26T05:02:20;7.90;99.90
2226;DHT22;1119;48.288;8.726;2023-03-26T05:05:13;7.80;99.90
2226;DHT22;1119;48.288;8.726;2023-03-26T05:08:01;7.70;99.90
2226;DHT22;1119;48.288;8.726;2023-03-26T05:10:49;7.50;99.90
2226;DHT22;1119;48.288;8.726;2023-03-26T05:13:48;7.40;99.90
2226;DHT22;1119;48.288;8.726;2023-03-26T05:16:36;7.40;99.90
2226;DHT22;1119;48.288;8.726;2023-03-26T05:19:29;7.30;99.90
2226;DHT22;1119;48.288;8.726;2023-03-26T05:22:18;7.30;99.90
2226;DHT22;1119;48.288;8.726;2023-03-26T05:25:29;7.30;99.90
2226;DHT22;1119;48.288;8.726;2023-03-26T05:28:19;7.30;99.90
2226;DHT22;1119;48.288;8.726;2023-03-26T05:31:19;7.30;99.90
2226;DHT22;1119;48.288;8.726;2023-03-26T05:34:09;7.30;99.90
2226;DHT22;1119;48.288;8.726;2023-03-26T05:36:57;7.30;99.90
2226;DHT22;1119;48.288;8.726;2023-03-26T05:40:06;7.30;99.90
2226;DHT22;1119;48.288;8.726;2023-03-26T05:43:04;7.40;99.90
2226;DHT22;1119;48.288;8.726;2023-03-26T05:45:58;7.50;99.90
2226;DHT22;1119;48.288;8.726;2023-03-26T05:48:50;7.10;99.90
2226;DHT22;1119;48.288;8.726;2023-03-26T05:51:39;7.60;99.90
2226;DHT22;1119;48.288;8.726;2023-03-26T05:54:45;7.60;99.90
2226;DHT22;1119;48.288;8.726;2023-03-26T05:57:53;7.60;99.90
2226;DHT22;1119;48.288;8.726;2023-03-26T06:01:01;7.70;99.90
2226;DHT22;1119;48.288;8.726;2023-03-26T06:04:11;7.70;99.90
2226;DHT22;1119;48.288;8.726;2023-03-26T06:07:07;7.60;99.90
2226;DHT22;1119;48.288;8.726;2023-03-26T06:09:55;7.70;99.90
2226;DHT22;1119;48.288;8.726;2023-03-26T06:12:43;7.70;99.90
2226;DHT22;1119;48.288;8.726;2023-03-26T06:15:33;7.70;99.90
2226;DHT22;1119;48.288;8.726;2023-03-26T06:18:41;7.70;99.90
2226;DHT22;1119;48.288;8.726;2023-03-26T06:21:41;7.80;99.90
2226;DHT22;1119;48.288;8.726;2023-03-26T06:24:35;7.90;99.90
2226;DHT22;1119;48.288;8.726;2023-03-26T06:27:41;7.90;99.90
2226;DHT22;1119;48.288;8.726;2023-03-26T06:30:49;7.80;99.90
2226;DHT22;1119;48.288;8.726;2023-03-26T06:33:57;7.70;99.90
2226;DHT22;1119;48.288;8.726;2023-03-26T06:36:45;7.80;99.90
2226;DHT22;1119;48.288;8.726;2023-03-26T06:39:34;7.70;99.90
2226;DHT22;1119;48.288;8.726;2023-03-26T06:42:34;7.70;99.90
2226;DHT22;1119;48.288;8.726;2023-03-26T06:45:38;7.70;99.90
2226;DHT22;1119;48.288;8.726;2023-03-26T06:48:45;7.70;99.90
2226;DHT22;1119;48.288;8.726;2023-03-26T06:51:40;7.60;99.90
2226;DHT22;1119;48.288;8.726;2023-03-26T06:54:37;7.70;99.90
2226;DHT22;1119;48.288;8.726;2023-03-26T06:57:47;7.40;99.90
2226;DHT22;1119;48.288;8.726;2023-03-26T07:00:55;7.40;99.90
2226;DHT22;1119;48.288;8.726;2023-03-26T07:04:03;7.40;99.90
2226;DHT22;1119;48.288;8.726;2023-03-26T07:07:10;7.40;99.90
2226;DHT22;1119;48.288;8.726;2023-03-26T07:10:16;7.40;99.90
2226;DHT22;1119;48.288;8.726;2023-03-26T07:13:24;7.40;99.90
2226;DHT22;1119;48.288;8.726;2023-03-26T07:16:31;7.40;99.90
2226;DHT22;1119;48.288;8.726;2023-03-26T07:19:40;7.40;99.90
2226;DHT22;1119;48.288;8.726;2023-03-26T07:22:29;7.40;99.90
2226;DHT22;1119;48.288;8.726;2023-03-26T07:25:26;7.50;99.90
2226;DHT22;1119;48.288;8.726;2023-03-26T07:28:36;7.50;99.90
2226;DHT22;1119;48.288;8.726;2023-03-26T07:31:41;7.50;99.90
2226;DHT22;1119;48.288;8.726;2023-03-26T07:34:54;7.50;99.90
2226;DHT22;1119;48.288;8.726;2023-03-26T07:38:24;7.40;99.90
2226;DHT22;1119;48.288;8.726;2023-03-26T07:41:49;7.40;99.90
2226;DHT22;1119;48.288;8.726;2023-03-26T07:45:00;7.40;99.90
2226;DHT22;1119;48.288;8.726;2023-03-26T07:47:59;7.40;99.90
2226;DHT22;1119;48.288;8.726;2023-03-26T07:51:21;7.40;99.90
2226;DHT22;1119;48.288;8.726;2023-03-26T07:54:32;7.40;99.90
2226;DHT22;1119;48.288;8.726;2023-03-26T07:58:03;7.40;99.90
2226;DHT22;1119;48.288;8.726;2023-03-26T08:01:15;7.40;99.90
2226;DHT22;1119;48.288;8.726;2023-03-26T08:04:39;7.30;99.90
2226;DHT22;1119;48.288;8.726;2023-03-26T08:08:01;7.30;99.90
2226;DHT22;1119;48.288;8.726;2023-03-26T08:11:09;7.40;99.90
2226;DHT22;1119;48.288;8.726;2023-03-26T08:14:32;7.50;99.90
2226;DHT22;1119;48.288;8.726;2023-03-26T08:17:35;7.50;99.90
2226;DHT22;1119;48.288;8.726;2023-03-26T08:20:31;7.50;99.90
2226;DHT22;1119;48.288;8.726;2023-03-26T08:23:28;7.50;99.90
2226;DHT22;1119;48.288;8.726;2023-03-26T08:26:25;7.50;99.90
2226;DHT22;1119;48.288;8.726;2023-03-26T08:29:21;7.50;99.90
2226;DHT22;1119;48.288;8.726;2023-03-26T08:32:15;7.50;99.90
2226;DHT22;1119;48.288;8.726;2023-03-26T08:35:06;7.50;99.90
2226;DHT22;1119;48.288;8.726;2023-03-26T08:37:58;7.50;99.90
2226;DHT22;1119;48.288;8.726;2023-03-26T08:41:17;7.50;99.90
2226;DHT22;1119;48.288;8.726;2023-03-26T08:49:02;7.50;99.90
2226;DHT22;1119;48.288;8.726;2023-03-26T08:55:46;7.40;99.90
2226;DHT22;1119;48.288;8.726;2023-03-26T09:06:18;7.50;99.90
2226;DHT22;1119;48.288;8.726;2023-03-26T09:09:33;7.60;99.90
2226;DHT22;1119;48.288;8.726;2023-03-26T09:20:06;8.60;99.90
2226;DHT22;1119;48.288;8.726;2023-03-26T09:27:17;10.20;99.90
2226;DHT22;1119;48.288;8.726;2023-03-26T09:30:36;10.90;99.90
2226;DHT22;1119;48.288;8.726;2023-03-26T09:33:56;11.40;99.90
2226;DHT22;1119;48.288;8.726;2023-03-26T09:36:55;12.00;99.90
2226;DHT22;1119;48.288;8.726;2023-03-26T09:39:55;12.40;99.90
2226;DHT22;1119;48.288;8.726;2023-03-26T09:42:54;12.60;99.70
2226;DHT22;1119;48.288;8.726;2023-03-26T09:45:55;12.50;99.80
2226;DHT22;1119;48.288;8.726;2023-03-26T09:52:25;13.00;99.10
2226;DHT22;1119;48.288;8.726;2023-03-26T09:55:58;13.00;96.50
2226;DHT22;1119;48.288;8.726;2023-03-26T09:59:15;12.30;94.40
2226;DHT22;1119;48.288;8.726;2023-03-26T10:02:41;12.00;95.20
2226;DHT22;1119;48.288;8.726;2023-03-26T10:05:47;11.80;94.50
2226;DHT22;1119;48.288;8.726;2023-03-26T10:09:01;11.50;95.30
2226;DHT22;1119;48.288;8.726;2023-03-26T10:12:14;11.60;95.60
2226;DHT22;1119;48.288;8.726;2023-03-26T10:15:20;11.80;94.40
2226;DHT22;1119;48.288;8.726;2023-03-26T10:18:19;11.90;93.60
2226;DHT22;1119;48.288;8.726;2023-03-26T10:21:19;12.00;92.30
2226;DHT22;1119;48.288;8.726;2023-03-26T10:24:34;12.00;91.50
2226;DHT22;1119;48.288;8.726;2023-03-26T10:27:39;11.80;92.70
2226;DHT22;1119;48.288;8.726;2023-03-26T10:30:53;11.70;92.80
2226;DHT22;1119;48.288;8.726;2023-03-26T10:33:58;11.50;92.30
2226;DHT22;1119;48.288;8.726;2023-03-26T10:36:59;11.30;93.50
2226;DHT22;1119;48.288;8.726;2023-03-26T10:43:41;10.90;96.80
2226;DHT22;1119;48.288;8.726;2023-03-26T10:47:01;10.70;98.30
2226;DHT22;1119;48.288;8.726;2023-03-26T10:50:27;10.20;99.90
2226;DHT22;1119;48.288;8.726;2023-03-26T10:53:27;9.60;99.90
2226;DHT22;1119;48.288;8.726;2023-03-26T10:56:23;9.30;99.90
2226;DHT22;1119;48.288;8.726;2023-03-26T10:59:14;9.00;99.90
2226;DHT22;1119;48.288;8.726;2023-03-26T11:02:25;8.80;99.90
2226;DHT22;1119;48.288;8.726;2023-03-26T11:05:25;8.70;99.90
2226;DHT22;1119;48.288;8.726;2023-03-26T11:08:27;8.70;99.90
2226;DHT22;1119;48.288;8.726;2023-03-26T11:11:22;8.80;99.90
2226;DHT22;1119;48.288;8.726;2023-03-26T11:14:18;9.00;99.90
2226;DHT22;1119;48.288;8.726;2023-03-26T11:17:13;9.30;99.90
2226;DHT22;1119;48.288;8.726;2023-03-26T11:20:09;9.60;99.90
2226;DHT22;1119;48.288;8.726;2023-03-26T11:23:16;10.00;99.90
2226;DHT22;1119;48.288;8.726;2023-03-26T11:26:13;10.30;99.90
2226;DHT22;1119;48.288;8.726;2023-03-26T11:29:13;10.60;99.90
2226;DHT22;1119;48.288;8.726;2023-03-26T11:32:10;11.00;99.90
2226;DHT22;1119;48.288;8.726;2023-03-26T11:35:17;11.20;99.90
2226;DHT22;1119;48.288;8.726;2023-03-26T11:38:14;11.30;99.90
2226;DHT22;1119;48.288;8.726;2023-03-26T11:41:13;11.50;99.90
2226;DHT22;1119;48.288;8.726;2023-03-26T11:44:17;11.80;99.90
2226;DHT22;1119;48.288;8.726;2023-03-26T11:47:09;11.80;99.90
2226;DHT22;1119;48.288;8.726;2023-03-26T11:50:01;12.00;99.90
2226;DHT22;1119;48.288;8.726;2023-03-26T11:52:50;12.30;99.90
2226;DHT22;1119;48.288;8.726;2023-03-26T11:55:40;12.30;97.90
2226;DHT22;1119;48.288;8.726;2023-03-26T11:58:39;12.40;96.90
2226;DHT22;1119;48.288;8.726;2023-03-26T12:01:42;12.50;98.10
2226;DHT22;1119;48.288;8.726;2023-03-26T12:04:36;12.80;98.30
2226;DHT22;1119;48.288;8.726;2023-03-26T12:07:30;12.70;96.30
2226;DHT22;1119;48.288;8.726;2023-03-26T12:10:36;12.50;95.50
2226;DHT22;1119;48.288;8.726;2023-03-26T12:13:34;12.20;95.70
2226;DHT22;1119;48.288;8.726;2023-03-26T12:16:24;11.80;96.90
2226;DHT22;1119;48.288;8.726;2023-03-26T12:19:18;11.50;97.50
2226;DHT22;1119;48.288;8.726;2023-03-26T12:22:26;11.20;97.10
2226;DHT22;1119;48.288;8.726;2023-03-26T12:25:17;11.00;97.60
2226;DHT22;1119;48.288;8.726;2023-03-26T12:28:17;11.20;98.50
2226;DHT22;1119;48.288;8.726;2023-03-26T12:31:11;10.80;99.10
2226;DHT22;1119;48.288;8.726;2023-03-26T12:34:06;10.80;98.40
2226;DHT22;1119;48.288;8.726;2023-03-26T12:37:02;10.60;98.30
2226;DHT22;1119;48.288;8.726;2023-03-26T12:40:05;10.50;99.30
2226;DHT22;1119;48.288;8.726;2023-03-26T12:42:58;10.60;99.90
2226;DHT22;1119;48.288;8.726;2023-03-26T12:45:51;10.60;99.90
2226;DHT22;1119;48.288;8.726;2023-03-26T12:48:50;10.50;99.60
2226;DHT22;1119;48.288;8.726;2023-03-26T12:51:45;10.50;99.60
2226;DHT22;1119;48.288;8.726;2023-03-26T12:54:41;10.50;99.90
2226;DHT22;1119;48.288;8.726;2023-03-26T12:57:35;10.40;97.80
2226;DHT22;1119;48.288;8.726;2023-03-26T13:00:39;10.30;97.90
2226;DHT22;1119;48.288;8.726;2023-03-26T13:03:39;10.30;97.80
2226;DHT22;1119;48.288;8.726;2023-03-26T13:06:39;10.20;98.60
2226;DHT22;1119;48.288;8.726;2023-03-26T13:09:44;10.20;99.30
2226;DHT22;1119;48.288;8.726;2023-03-26T13:12:42;10.10;99.60
2226;DHT22;1119;48.288;8.726;2023-03-26T13:15:34;10.10;97.80
2226;DHT22;1119;48.288;8.726;2023-03-26T13:18:32;10.40;97.60
2226;DHT22;1119;48.288;8.726;2023-03-26T13:21:31;10.90;95.70
2226;DHT22;1119;48.288;8.726;2023-03-26T13:24:33;11.00;93.90
2226;DHT22;1119;48.288;8.726;2023-03-26T13:27:36;11.10;93.30
2226;DHT22;1119;48.288;8.726;2023-03-26T13:30:32;10.90;91.20
2226;DHT22;1119;48.288;8.726;2023-03-26T13:33:31;10.80;91.00
2226;DHT22;1119;48.288;8.726;2023-03-26T13:36:32;10.80;89.20
2226;DHT22;1119;48.288;8.726;2023-03-26T13:39:33;10.90;88.50
2226;DHT22;1119;48.288;8.726;2023-03-26T13:42:37;11.00;88.80
2226;DHT22;1119;48.288;8.726;2023-03-26T13:45:41;11.00;85.40
2226;DHT22;1119;48.288;8.726;2023-03-26T13:48:39;11.00;86.30
2226;DHT22;1119;48.288;8.726;2023-03-26T13:51:33;10.80;84.90
2226;DHT22;1119;48.288;8.726;2023-03-26T13:54:30;10.80;84.80
2226;DHT22;1119;48.288;8.726;2023-03-26T13:57:23;10.60;83.20
2226;DHT22;1119;48.288;8.726;2023-03-26T14:00:16;10.40;82.60
2226;DHT22;1119;48.288;8.726;2023-03-26T14:03:12;10.50;85.20
2226;DHT22;1119;48.288;8.726;2023-03-26T14:06:09;10.50;85.30
2226;DHT22;1119;48.288;8.726;2023-03-26T14:09:03;10.30;85.60
2226;DHT22;1119;48.288;8.726;2023-03-26T14:12:19;10.20;86.20
2226;DHT22;1119;48.288;8.726;2023-03-26T14:15:14;10.00;87.10
2226;DHT22;1119;48.288;8.726;2023-03-26T14:18:10;9.90;89.00
2226;DHT22;1119;48.288;8.726;2023-03-26T14:21:37;9.90;90.00
2226;DHT22;1119;48.288;8.726;2023-03-26T14:24:44;9.90;89.90
2226;DHT22;1119;48.288;8.726;2023-03-26T14:27:45;10.10;89.00
2226;DHT22;1119;48.288;8.726;2023-03-26T14:31:01;10.30;89.70
2226;DHT22;1119;48.288;8.726;2023-03-26T14:34:19;10.30;90.20
2226;DHT22;1119;48.288;8.726;2023-03-26T14:37:46;10.40;89.70
2226;DHT22;1119;48.288;8.726;2023-03-26T14:40:55;10.30;88.10
2226;DHT22;1119;48.288;8.726;2023-03-26T14:44:16;10.20;88.10
2226;DHT22;1119;48.288;8.726;2023-03-26T14:47:36;10.10;89.40
2226;DHT22;1119;48.288;8.726;2023-03-26T14:50:42;10.20;90.00
2226;DHT22;1119;48.288;8.726;2023-03-26T14:53:42;10.10;89.30
2226;DHT22;1119;48.288;8.726;2023-03-26T14:56:49;10.00;89.80
2226;DHT22;1119;48.288;8.726;2023-03-26T14:59:56;10.00;91.80
2226;DHT22;1119;48.288;8.726;2023-03-26T15:03:51;9.90;94.80
2226;DHT22;1119;48.288;8.726;2023-03-26T15:10:48;8.50;99.20
2226;DHT22;1119;48.288;8.726;2023-03-26T15:14:13;8.00;99.90
2226;DHT22;1119;48.288;8.726;2023-03-26T15:17:49;7.70;99.90
2226;DHT22;1119;48.288;8.726;2023-03-26T15:24:49;7.30;99.90
2226;DHT22;1119;48.288;8.726;2023-03-26T15:28:39;7.40;99.90
2226;DHT22;1119;48.288;8.726;2023-03-26T15:32:27;7.40;99.90
2226;DHT22;1119;48.288;8.726;2023-03-26T15:35:39;7.40;99.90
2226;DHT22;1119;48.288;8.726;2023-03-26T15:38:58;7.40;99.90
2226;DHT22;1119;48.288;8.726;2023-03-26T15:42:06;7.40;99.90
2226;DHT22;1119;48.288;8.726;2023-03-26T15:45:14;7.50;99.90
2226;DHT22;1119;48.288;8.726;2023-03-26T15:48:42;7.60;99.90
2226;DHT22;1119;48.288;8.726;2023-03-26T15:51:44;7.60;99.90
2226;DHT22;1119;48.288;8.726;2023-03-26T15:54:45;7.70;99.90
2226;DHT22;1119;48.288;8.726;2023-03-26T15:57:41;7.70;99.90
2226;DHT22;1119;48.288;8.726;2023-03-26T16:00:34;7.60;99.90
2226;DHT22;1119;48.288;8.726;2023-03-26T16:03:27;7.50;99.90
2226;DHT22;1119;48.288;8.726;2023-03-26T16:06:28;7.10;99.90
2226;DHT22;1119;48.288;8.726;2023-03-26T16:09:41;7.40;99.90
2226;DHT22;1119;48.288;8.726;2023-03-26T16:12:44;7.40;99.90
2226;DHT22;1119;48.288;8.726;2023-03-26T16:15:34;7.50;99.90
2226;DHT22;1119;48.288;8.726;2023-03-26T16:18:32;7.50;99.90
2226;DHT22;1119;48.288;8.726;2023-03-26T16:21:37;7.50;99.90
2226;DHT22;1119;48.288;8.726;2023-03-26T16:24:32;7.50;99.90
2226;DHT22;1119;48.288;8.726;2023-03-26T16:27:29;7.50;99.90
2226;DHT22;1119;48.288;8.726;2023-03-26T16:30:29;7.50;99.90
2226;DHT22;1119;48.288;8.726;2023-03-26T16:33:19;7.50;99.90
2226;DHT22;1119;48.288;8.726;2023-03-26T16:36:25;7.50;99.90
2226;DHT22;1119;48.288;8.726;2023-03-26T16:39:23;7.40;99.90
2226;DHT22;1119;48.288;8.726;2023-03-26T16:42:31;7.40;99.90
2226;DHT22;1119;48.288;8.726;2023-03-26T16:45:27;7.30;99.90
2226;DHT22;1119;48.288;8.726;2023-03-26T16:48:22;7.30;99.90
2226;DHT22;1119;48.288;8.726;2023-03-26T16:51:19;7.40;99.90
2226;DHT22;1119;48.288;8.726;2023-03-26T16:54:15;7.30;99.90
2226;DHT22;1119;48.288;8.726;2023-03-26T16:57:19;7.30;99.90
2226;DHT22;1119;48.288;8.726;2023-03-26T17:00:34;7.30;99.90
2226;DHT22;1119;48.288;8.726;2023-03-26T17:03:32;7.30;99.90
2226;DHT22;1119;48.288;8.726;2023-03-26T17:06:45;7.40;99.90
2226;DHT22;1119;48.288;8.726;2023-03-26T17:09:58;7.40;99.90
2226;DHT22;1119;48.288;8.726;2023-03-26T17:12:57;7.50;99.90
2226;DHT22;1119;48.288;8.726;2023-03-26T17:15:58;7.50;99.90
2226;DHT22;1119;48.288;8.726;2023-03-26T17:18:56;7.50;99.90
2226;DHT22;1119;48.288;8.726;2023-03-26T17:21:52;7.50;99.90
2226;DHT22;1119;48.288;8.726;2023-03-26T17:24:45;7.50;99.90
2226;DHT22;1119;48.288;8.726;2023-03-26T17:28:06;7.40;99.90
2226;DHT22;1119;48.288;8.726;2023-03-26T17:31:04;7.30;99.90
2226;DHT22;1119;48.288;8.726;2023-03-26T17:34:38;7.30;99.90
2226;DHT22;1119;48.288;8.726;2023-03-26T17:37:38;7.40;99.90
2226;DHT22;1119;48.288;8.726;2023-03-26T17:40:47;7.40;99.90
2226;DHT22;1119;48.288;8.726;2023-03-26T17:43:42;7.50;99.90
2226;DHT22;1119;48.288;8.726;2023-03-26T17:46:34;7.50;99.90
2226;DHT22;1119;48.288;8.726;2023-03-26T17:49:26;7.50;99.90
2226;DHT22;1119;48.288;8.726;2023-03-26T17:52:19;7.60;99.90
2226;DHT22;1119;48.288;8.726;2023-03-26T17:55:16;7.60;99.90
2226;DHT22;1119;48.288;8.726;2023-03-26T17:58:13;7.70;99.90
2226;DHT22;1119;48.288;8.726;2023-03-26T18:01:16;7.60;99.90
2226;DHT22;1119;48.288;8.726;2023-03-26T18:04:13;7.40;99.90
2226;DHT22;1119;48.288;8.726;2023-03-26T18:07:35;7.30;99.90
2226;DHT22;1119;48.288;8.726;2023-03-26T18:20:35;6.50;99.90
2226;DHT22;1119;48.288;8.726;2023-03-26T18:23:25;6.30;99.90
2226;DHT22;1119;48.288;8.726;2023-03-26T18:26:20;6.20;99.90
2226;DHT22;1119;48.288;8.726;2023-03-26T18:29:15;6.10;99.90
2226;DHT22;1119;48.288;8.726;2023-03-26T18:32:18;6.00;99.90
2226;DHT22;1119;48.288;8.726;2023-03-26T18:35:13;5.80;99.90
2226;DHT22;1119;48.288;8.726;2023-03-26T18:38:05;5.70;99.90
2226;DHT22;1119;48.288;8.726;2023-03-26T18:40:54;5.70;99.90
2226;DHT22;1119;48.288;8.726;2023-03-26T18:43:44;5.60;99.90
2226;DHT22;1119;48.288;8.726;2023-03-26T18:46:32;5.60;99.90
2226;DHT22;1119;48.288;8.726;2023-03-26T18:49:21;5.50;99.90
2226;DHT22;1119;48.288;8.726;2023-03-26T18:52:12;5.60;99.90
2226;DHT22;1119;48.288;8.726;2023-03-26T18:55:01;5.40;99.90
2226;DHT22;1119;48.288;8.726;2023-03-26T18:57:50;5.30;99.90
2226;DHT22;1119;48.288;8.726;2023-03-26T19:00:39;5.30;99.90
2226;DHT22;1119;48.288;8.726;2023-03-26T19:03:32;5.30;99.90
2226;DHT22;1119;48.288;8.726;2023-03-26T19:06:22;5.30;99.90
2226;DHT22;1119;48.288;8.726;2023-03-26T19:09:11;5.30;99.90
2226;DHT22;1119;48.288;8.726;2023-03-26T19:12:04;5.40;99.90
2226;DHT22;1119;48.288;8.726;2023-03-26T19:14:56;5.30;99.90
2226;DHT22;1119;48.288;8.726;2023-03-26T19:17:53;5.30;99.90
2226;DHT22;1119;48.288;8.726;2023-03-26T19:20:49;5.40;99.90
2226;DHT22;1119;48.288;8.726;2023-03-26T19:23:40;5.40;99.90
2226;DHT22;1119;48.288;8.726;2023-03-26T19:26:27;5.40;99.90
2226;DHT22;1119;48.288;8.726;2023-03-26T19:29:20;5.40;99.90
2226;DHT22;1119;48.288;8.726;2023-03-26T19:32:16;5.50;99.90
2226;DHT22;1119;48.288;8.726;2023-03-26T19:35:19;5.50;99.90
2226;DHT22;1119;48.288;8.726;2023-03-26T19:38:19;5.40;99.90
2226;DHT22;1119;48.288;8.726;2023-03-26T19:41:17;5.40;99.90
2226;DHT22;1119;48.288;8.726;2023-03-26T19:44:18;5.40;99.90
2226;DHT22;1119;48.288;8.726;2023-03-26T19:47:12;5.50;99.90
2226;DHT22;1119;48.288;8.726;2023-03-26T19:50:19;5.40;99.90
2226;DHT22;1119;48.288;8.726;2023-03-26T19:53:18;5.30;99.90
2226;DHT22;1119;48.288;8.726;2023-03-26T19:56:11;5.20;99.90
2226;DHT22;1119;48.288;8.726;2023-03-26T19:59:04;5.30;99.90
2226;DHT22;1119;48.288;8.726;2023-03-26T20:01:52;5.20;99.90
2226;DHT22;1119;48.288;8.726;2023-03-26T20:04:41;5.20;99.90
2226;DHT22;1119;48.288;8.726;2023-03-26T20:07:30;5.20;99.90
2226;DHT22;1119;48.288;8.726;2023-03-26T20:10:20;5.30;99.90
2226;DHT22;1119;48.288;8.726;2023-03-26T20:13:13;5.30;99.90
2226;DHT22;1119;48.288;8.726;2023-03-26T20:16:06;5.40;99.90
2226;DHT22;1119;48.288;8.726;2023-03-26T20:18:58;5.40;99.90
2226;DHT22;1119;48.288;8.726;2023-03-26T20:21:47;5.40;99.90
2226;DHT22;1119;48.288;8.726;2023-03-26T20:24:37;5.30;99.90
2226;DHT22;1119;48.288;8.726;2023-03-26T20:27:25;5.30;99.90
2226;DHT22;1119;48.288;8.726;2023-03-26T20:30:14;5.20;99.90
2226;DHT22;1119;48.288;8.726;2023-03-26T20:33:03;5.20;99.90
2226;DHT22;1119;48.288;8.726;2023-03-26T20:35:51;5.20;99.90
2226;DHT22;1119;48.288;8.726;2023-03-26T20:38:40;5.20;99.90
2226;DHT22;1119;48.288;8.726;2023-03-26T20:41:30;5.20;99.90